createdAt,value
2018-03-22T00:01:20.920Z,7.63
2018-03-22T00:03:48.489Z,7.60
2018-03-22T00:06:17.974Z,7.90
2018-03-22T00:08:45.593Z,8.10
2018-03-22T00:11:13.907Z,8.13
2018-03-22T00:13:41.420Z,8.63
2018-03-22T00:16:08.993Z,8.23
2018-03-22T00:18:36.542Z,7.43
2018-03-22T00:21:04.138Z,8.03
2018-03-22T00:23:33.644Z,8.90
2018-03-22T00:26:01.961Z,7.87
2018-03-22T00:28:30.457Z,7.80
2018-03-22T00:30:57.997Z,8.53
2018-03-22T00:33:25.536Z,9.17
2018-03-22T00:35:54.981Z,8.63
2018-03-22T00:38:22.557Z,9.17
2018-03-22T00:40:51.051Z,8.67
2018-03-22T00:43:19.520Z,10.07
2018-03-22T00:45:47.056Z,12.13
2018-03-22T00:48:16.302Z,8.40
2018-03-22T00:50:43.854Z,8.77
2018-03-22T00:53:11.384Z,10.17
2018-03-22T00:55:39.697Z,10.27
2018-03-22T00:58:08.119Z,10.00
2018-03-22T01:00:36.600Z,9.70
2018-03-22T01:03:04.102Z,10.07
2018-03-22T01:05:32.387Z,10.60
2018-03-22T01:08:00.878Z,10.77
2018-03-22T01:10:29.386Z,9.70
2018-03-22T01:12:57.875Z,10.40
2018-03-22T01:15:25.457Z,12.83
2018-03-22T01:17:52.985Z,10.70
2018-03-22T01:20:20.528Z,10.10
2018-03-22T01:23:06.651Z,11.20
2018-03-22T01:25:35.132Z,10.27
2018-03-22T01:28:02.691Z,10.40
2018-03-22T01:33:17.135Z,11.93
2018-03-22T01:35:45.559Z,9.83
2018-03-22T01:38:13.225Z,10.90
2018-03-22T01:40:41.712Z,11.63
2018-03-22T01:43:10.880Z,11.50
2018-03-22T01:45:39.182Z,10.40
2018-03-22T01:48:06.735Z,10.90
2018-03-22T01:50:34.278Z,10.47
2018-03-22T01:53:13.964Z,10.53
2018-03-22T01:55:41.545Z,11.23
2018-03-22T01:58:09.121Z,10.93
2018-03-22T02:00:36.747Z,10.03
2018-03-22T02:03:04.358Z,10.03
2018-03-22T02:05:31.894Z,12.03
2018-03-22T02:07:59.544Z,10.30
2018-03-22T02:10:28.007Z,10.97
2018-03-22T02:12:56.323Z,12.73
2018-03-22T02:15:24.827Z,10.97
2018-03-22T02:17:53.298Z,12.43
2018-03-22T02:23:20.546Z,13.17
2018-03-22T02:25:48.143Z,11.73
2018-03-22T02:28:15.742Z,11.77
2018-03-22T02:30:44.039Z,12.23
2018-03-22T02:33:11.601Z,10.70
2018-03-22T02:35:39.874Z,10.67
2018-03-22T02:38:08.407Z,11.30
2018-03-22T02:40:36.933Z,11.17
2018-03-22T02:43:04.492Z,10.43
2018-03-22T02:45:34.047Z,11.33
2018-03-22T02:48:01.632Z,10.87
2018-03-22T02:50:29.170Z,11.23
2018-03-22T02:53:16.222Z,10.33
2018-03-22T02:55:44.667Z,15.10
2018-03-22T03:00:53.426Z,10.80
2018-03-22T03:03:21.055Z,11.53
2018-03-22T03:05:49.356Z,10.27
2018-03-22T03:08:17.843Z,10.53
2018-03-22T03:10:45.371Z,10.90
2018-03-22T03:13:12.887Z,11.40
2018-03-22T03:15:40.432Z,10.70
2018-03-22T03:18:08.926Z,10.50
2018-03-22T03:20:36.460Z,11.43
2018-03-22T03:23:04.727Z,12.90
2018-03-22T03:25:33.170Z,11.20
2018-03-22T03:28:00.701Z,11.53
2018-03-22T03:30:29.930Z,24.00
2018-03-22T03:32:57.955Z,11.10
2018-03-22T03:35:26.426Z,11.23
2018-03-22T03:37:57.508Z,11.90
2018-03-22T03:40:25.861Z,11.20
2018-03-22T03:42:53.399Z,11.20
2018-03-22T03:45:22.882Z,11.10
2018-03-22T03:47:50.435Z,10.87
2018-03-22T03:50:18.051Z,11.60
2018-03-22T03:52:45.555Z,10.57
2018-03-22T03:55:13.888Z,13.87
2018-03-22T03:57:41.451Z,11.83
2018-03-22T04:00:08.979Z,11.47
2018-03-22T04:02:36.533Z,11.73
2018-03-22T04:05:05.823Z,11.90
2018-03-22T04:07:33.341Z,11.30
2018-03-22T04:10:00.857Z,11.07
2018-03-22T04:12:29.182Z,12.33
2018-03-22T04:14:57.753Z,11.37
2018-03-22T04:17:25.259Z,11.63
2018-03-22T04:19:52.838Z,11.50
2018-03-22T04:22:20.404Z,11.27
2018-03-22T04:24:48.658Z,11.67
2018-03-22T04:27:16.221Z,12.40
2018-03-22T04:29:43.741Z,11.67
2018-03-22T04:32:11.221Z,10.80
2018-03-22T04:34:38.800Z,10.70
2018-03-22T04:37:07.278Z,13.20
2018-03-22T04:39:34.784Z,10.93
2018-03-22T04:42:02.292Z,11.77
2018-03-22T04:44:29.871Z,11.97
2018-03-22T04:46:58.310Z,10.90
2018-03-22T04:49:25.877Z,11.97
2018-03-22T04:51:54.201Z,11.03
2018-03-22T04:54:22.693Z,10.10
2018-03-22T04:56:52.135Z,11.37
2018-03-22T04:59:20.639Z,13.43
2018-03-22T05:01:49.103Z,11.13
2018-03-22T05:04:16.713Z,11.10
2018-03-22T05:06:45.209Z,11.77
2018-03-22T05:09:13.656Z,11.13
2018-03-22T05:11:43.133Z,11.03
2018-03-22T05:14:28.543Z,11.57
2018-03-22T05:19:38.818Z,13.90
2018-03-22T05:22:07.106Z,14.60
2018-03-22T05:24:35.590Z,14.00
2018-03-22T05:27:03.208Z,12.57
2018-03-22T05:29:30.802Z,12.53
2018-03-22T05:31:58.342Z,11.87
2018-03-22T05:34:26.709Z,11.73
2018-03-22T05:36:55.268Z,11.20
2018-03-22T05:39:22.791Z,10.77
2018-03-22T05:41:50.340Z,10.20
2018-03-22T05:44:17.921Z,10.23
2018-03-22T05:46:45.430Z,10.67
2018-03-22T05:49:12.926Z,10.27
2018-03-22T05:51:41.390Z,10.47
2018-03-22T05:54:08.940Z,11.37
2018-03-22T05:56:36.464Z,10.63
2018-03-22T05:59:03.984Z,10.70
2018-03-22T06:01:31.538Z,10.67
2018-03-22T06:03:59.042Z,10.03
2018-03-22T06:06:27.522Z,10.27
2018-03-22T06:08:55.945Z,10.30
2018-03-22T06:11:25.198Z,10.03
2018-03-22T06:13:52.709Z,10.10
2018-03-22T06:16:21.015Z,12.07
2018-03-22T06:18:48.616Z,9.67
2018-03-22T06:21:16.159Z,10.07
2018-03-22T06:23:43.772Z,9.43
2018-03-22T06:26:11.340Z,11.50
2018-03-22T06:28:38.870Z,10.60
2018-03-22T06:31:06.380Z,11.50
2018-03-22T06:33:35.606Z,10.13
2018-03-22T06:36:03.113Z,9.77
2018-03-22T06:38:30.661Z,10.63
2018-03-22T06:40:58.228Z,16.90
2018-03-22T06:43:25.759Z,11.53
2018-03-22T06:45:53.294Z,12.27
2018-03-22T06:48:20.818Z,11.87
2018-03-22T06:50:49.284Z,11.07
2018-03-22T06:53:17.751Z,10.13
2018-03-22T06:55:45.366Z,11.47
2018-03-22T06:58:12.877Z,11.30
2018-03-22T07:00:41.191Z,10.00
2018-03-22T07:03:08.689Z,10.10
2018-03-22T07:05:37.124Z,10.50
2018-03-22T07:08:06.569Z,10.40
2018-03-22T07:10:34.095Z,11.83
2018-03-22T07:13:01.656Z,10.00
2018-03-22T07:15:29.671Z,10.60
2018-03-22T07:17:58.161Z,11.00
2018-03-22T07:20:26.611Z,11.03
2018-03-22T07:22:54.129Z,11.13
2018-03-22T07:25:21.671Z,11.50
2018-03-22T07:27:49.174Z,11.93
2018-03-22T07:30:17.483Z,11.73
2018-03-22T07:32:45.008Z,11.33
2018-03-22T07:35:13.282Z,12.57
2018-03-22T07:37:41.595Z,11.47
2018-03-22T07:40:10.120Z,12.33
2018-03-22T07:42:37.699Z,13.40
2018-03-22T07:45:09.941Z,11.53
2018-03-22T07:47:37.446Z,11.70
2018-03-22T07:50:06.010Z,10.97
2018-03-22T07:52:33.528Z,11.30
2018-03-22T07:55:01.132Z,10.47
2018-03-22T07:57:28.742Z,11.33
2018-03-22T07:59:58.078Z,11.07
2018-03-22T08:02:25.601Z,11.77
2018-03-22T08:04:54.840Z,11.70
2018-03-22T08:07:43.302Z,11.67
2018-03-22T08:10:10.848Z,11.47
2018-03-22T08:12:38.407Z,11.33
2018-03-22T08:15:06.918Z,11.17
2018-03-22T08:17:34.474Z,12.43
2018-03-22T08:20:01.990Z,11.90
2018-03-22T08:22:29.512Z,12.17
2018-03-22T08:24:57.165Z,11.33
2018-03-22T08:27:24.665Z,11.40
2018-03-22T08:29:54.158Z,11.80
2018-03-22T08:32:25.726Z,11.53
2018-03-22T08:34:53.452Z,12.23
2018-03-22T08:37:21.036Z,10.90
2018-03-22T08:39:48.679Z,10.70
2018-03-22T08:42:16.174Z,11.37
2018-03-22T08:44:43.718Z,10.40
2018-03-22T08:47:11.398Z,11.70
2018-03-22T08:49:39.813Z,10.67
2018-03-22T08:52:07.387Z,10.93
2018-03-22T08:54:35.680Z,11.43
2018-03-22T08:57:04.004Z,12.80
2018-03-22T08:59:31.533Z,12.60
2018-03-22T09:01:59.987Z,13.20
2018-03-22T09:04:27.529Z,14.47
2018-03-22T09:06:55.043Z,14.93
2018-03-22T09:09:22.599Z,13.70
2018-03-22T09:11:50.872Z,13.80
2018-03-22T09:14:20.112Z,13.87
2018-03-22T09:16:47.690Z,13.77
2018-03-22T09:19:15.326Z,12.77
2018-03-22T09:21:43.823Z,14.90
2018-03-22T09:24:12.263Z,13.53
2018-03-22T09:26:45.544Z,14.00
2018-03-22T09:29:14.025Z,12.80
2018-03-22T09:31:42.488Z,15.03
2018-03-22T09:34:10.057Z,14.33
2018-03-22T09:36:38.528Z,13.40
2018-03-22T09:39:07.008Z,13.10
2018-03-22T09:41:34.659Z,12.50
2018-03-22T09:44:20.827Z,13.73
2018-03-22T09:46:49.169Z,13.63
2018-03-22T09:49:16.667Z,13.93
2018-03-22T09:54:23.494Z,12.67
2018-03-22T09:56:51.808Z,12.50
2018-03-22T09:59:19.398Z,12.87
2018-03-22T10:01:46.967Z,14.23
2018-03-22T10:04:14.495Z,13.50
2018-03-22T10:06:42.071Z,13.67
2018-03-22T10:09:10.509Z,13.87
2018-03-22T10:11:38.823Z,14.07
2018-03-22T10:14:06.372Z,14.20
2018-03-22T10:16:33.944Z,13.63
2018-03-22T10:19:03.138Z,13.67
2018-03-22T10:21:30.702Z,13.40
2018-03-22T10:23:58.306Z,11.80
2018-03-22T10:26:25.814Z,12.37
2018-03-22T10:28:54.132Z,13.73
2018-03-22T10:31:21.689Z,14.00
2018-03-22T10:33:49.302Z,13.93
2018-03-22T10:36:16.816Z,13.93
2018-03-22T10:38:44.350Z,14.10
2018-03-22T10:41:12.631Z,13.87
2018-03-22T10:43:41.865Z,13.17
2018-03-22T10:46:09.380Z,12.70
2018-03-22T10:48:36.923Z,12.30
2018-03-22T10:51:04.615Z,14.33
2018-03-22T10:53:32.114Z,14.37
2018-03-22T10:55:59.699Z,14.50
2018-03-22T10:58:27.336Z,14.30
2018-03-22T11:01:00.556Z,13.70
2018-03-22T11:03:28.115Z,8.83
2018-03-22T11:05:55.649Z,8.33
2018-03-22T11:08:26.249Z,8.80
2018-03-22T11:10:57.343Z,9.23
2018-03-22T11:13:47.638Z,8.37
2018-03-22T11:16:16.158Z,8.53
2018-03-22T11:18:44.586Z,8.30
2018-03-22T11:23:53.726Z,7.33
2018-03-22T11:26:22.039Z,8.33
2018-03-22T11:28:51.505Z,7.27
2018-03-22T11:31:19.047Z,6.83
2018-03-22T11:33:46.565Z,6.57
2018-03-22T11:36:14.139Z,7.07
2018-03-22T11:38:42.578Z,6.93
2018-03-22T11:41:11.020Z,6.27
2018-03-22T11:43:38.555Z,7.00
2018-03-22T11:46:06.139Z,6.50
2018-03-22T11:48:33.709Z,7.87
2018-03-22T11:51:01.239Z,7.50
2018-03-22T11:53:30.491Z,7.43
2018-03-22T11:55:58.935Z,6.43
2018-03-22T11:58:28.166Z,6.50
2018-03-22T12:00:56.974Z,6.30
2018-03-22T12:03:26.404Z,6.60
2018-03-22T12:05:53.935Z,6.83
2018-03-22T12:08:21.573Z,6.57
2018-03-22T12:10:49.067Z,7.60
2018-03-22T12:13:16.632Z,7.67
2018-03-22T12:15:44.202Z,6.33
2018-03-22T12:18:11.825Z,6.50
2018-03-22T12:20:39.397Z,5.93
2018-03-22T12:23:06.914Z,6.80
2018-03-22T12:25:35.397Z,7.13
2018-03-22T12:28:03.917Z,6.20
2018-03-22T12:30:31.473Z,6.00
2018-03-22T12:32:59.077Z,5.07
2018-03-22T12:35:26.742Z,5.87
2018-03-22T12:37:55.317Z,6.53
2018-03-22T12:40:23.606Z,6.73
2018-03-22T12:42:51.173Z,5.63
2018-03-22T12:45:18.797Z,6.37
2018-03-22T12:47:47.264Z,6.70
2018-03-22T12:50:16.752Z,5.93
2018-03-22T12:52:44.354Z,6.60
2018-03-22T12:55:11.909Z,6.23
2018-03-22T12:57:39.437Z,6.03
2018-03-22T13:00:06.982Z,7.27
2018-03-22T13:02:36.223Z,5.80
2018-03-22T13:08:00.373Z,7.07
2018-03-22T13:10:27.917Z,6.47
2018-03-22T13:12:57.117Z,7.00
2018-03-22T13:15:25.493Z,6.60
2018-03-22T13:17:53.039Z,6.10
2018-03-22T13:20:20.566Z,6.47
2018-03-22T13:22:48.102Z,6.40
2018-03-22T13:25:16.414Z,7.00
2018-03-22T13:27:43.977Z,6.73
2018-03-22T13:30:11.560Z,7.20
2018-03-22T13:32:39.110Z,6.00
2018-03-22T13:35:06.657Z,6.60
2018-03-22T13:37:34.343Z,7.37
2018-03-22T13:40:01.907Z,7.33
2018-03-22T13:42:29.490Z,7.40
2018-03-22T13:44:57.967Z,6.90
2018-03-22T13:47:25.489Z,7.10
2018-03-22T13:49:53.798Z,6.37
2018-03-22T13:52:22.314Z,6.97
2018-03-22T13:54:49.871Z,6.83
2018-03-22T13:57:17.375Z,7.10
2018-03-22T13:59:44.885Z,7.23
2018-03-22T14:02:12.434Z,7.30
2018-03-22T14:04:40.006Z,7.03
2018-03-22T14:07:07.503Z,7.27
2018-03-22T14:09:35.096Z,7.27
2018-03-22T14:12:04.326Z,6.80
2018-03-22T14:14:31.874Z,7.50
2018-03-22T14:17:00.146Z,6.70
2018-03-22T14:19:29.381Z,6.23
2018-03-22T14:21:56.921Z,6.27
2018-03-22T14:24:25.266Z,6.33
2018-03-22T14:26:52.790Z,6.63
2018-03-22T14:29:20.392Z,6.30
2018-03-22T14:31:48.921Z,6.87
2018-03-22T14:34:17.264Z,5.50
2018-03-22T14:36:44.829Z,5.47
2018-03-22T14:39:13.949Z,5.50
2018-03-22T14:41:41.455Z,5.30
2018-03-22T14:44:09.010Z,5.50
2018-03-22T14:46:37.458Z,5.43
2018-03-22T14:49:05.023Z,4.93
2018-03-22T14:51:33.016Z,5.07
2018-03-22T14:54:00.610Z,5.03
2018-03-22T14:56:28.130Z,5.13
2018-03-22T14:58:55.779Z,5.17
2018-03-22T15:01:23.304Z,5.33
2018-03-22T15:03:50.812Z,5.37
2018-03-22T15:06:19.314Z,4.67
2018-03-22T15:08:47.745Z,5.20
2018-03-22T15:11:15.310Z,5.23
2018-03-22T15:13:42.814Z,5.53
2018-03-22T15:16:10.348Z,5.30
2018-03-22T15:18:37.913Z,6.00
2018-03-22T15:21:05.462Z,6.37
2018-03-22T15:23:34.003Z,5.90
2018-03-22T15:26:01.605Z,5.47
2018-03-22T15:28:29.112Z,5.47
2018-03-22T15:30:56.647Z,5.87
2018-03-22T15:33:24.202Z,5.50
2018-03-22T15:35:52.614Z,5.60
2018-03-22T15:38:20.169Z,6.33
2018-03-22T15:40:47.739Z,5.87
2018-03-22T15:43:15.245Z,5.63
2018-03-22T15:45:44.444Z,5.73
2018-03-22T15:48:12.021Z,5.83
2018-03-22T15:50:40.534Z,6.40
2018-03-22T15:53:08.128Z,6.27
2018-03-22T15:55:35.657Z,6.30
2018-03-22T15:58:04.078Z,6.37
2018-03-22T16:00:31.628Z,7.10
2018-03-22T16:02:59.130Z,7.40
2018-03-22T16:05:26.797Z,6.87
2018-03-22T16:07:55.178Z,7.80
2018-03-22T16:10:22.713Z,7.40
2018-03-22T16:12:50.216Z,7.30
2018-03-22T16:15:17.746Z,6.90
2018-03-22T16:17:45.238Z,7.17
2018-03-22T16:20:12.792Z,6.63
2018-03-22T16:22:40.373Z,6.20
2018-03-22T16:25:07.933Z,6.40
2018-03-22T16:27:35.454Z,6.77
2018-03-22T16:30:03.079Z,7.27
2018-03-22T16:32:32.592Z,6.40
2018-03-22T16:35:00.956Z,6.60
2018-03-22T16:37:28.458Z,7.13
2018-03-22T16:39:56.964Z,7.07
2018-03-22T16:42:24.567Z,8.13
2018-03-22T16:44:52.115Z,7.10
2018-03-22T16:47:19.633Z,7.03
2018-03-22T16:49:47.517Z,6.20
2018-03-22T16:52:15.158Z,7.10
2018-03-22T16:54:43.628Z,8.30
2018-03-22T16:57:11.220Z,6.93
2018-03-22T16:59:40.522Z,7.27
2018-03-22T17:02:08.991Z,7.13
2018-03-22T17:04:36.587Z,8.53
2018-03-22T17:07:05.113Z,6.53
2018-03-22T17:09:32.628Z,6.90
2018-03-22T17:12:00.173Z,5.67
2018-03-22T17:14:47.166Z,6.13
2018-03-22T17:17:15.488Z,6.67
2018-03-22T17:22:24.104Z,5.93
2018-03-22T17:24:51.647Z,7.23
2018-03-22T17:27:22.123Z,6.57
2018-03-22T17:29:49.673Z,6.73
2018-03-22T17:32:18.075Z,6.20
2018-03-22T17:34:45.589Z,6.60
2018-03-22T17:37:13.155Z,7.57
2018-03-22T17:39:40.722Z,7.23
2018-03-22T17:42:08.325Z,6.63
2018-03-22T17:44:35.865Z,7.33
2018-03-22T17:47:03.563Z,15.57
2018-03-22T17:49:31.111Z,19.67
2018-03-22T17:51:58.677Z,38.40
2018-03-22T17:54:26.286Z,16.70
2018-03-22T17:56:53.842Z,9.00
2018-03-22T17:59:21.968Z,14.03
2018-03-22T18:01:51.272Z,12.17
2018-03-22T18:04:19.565Z,11.43
2018-03-22T18:06:47.099Z,13.33
2018-03-22T18:09:14.689Z,7.53
2018-03-22T18:11:43.042Z,6.87
2018-03-22T18:14:11.127Z,7.33
2018-03-22T18:16:38.731Z,7.47
2018-03-22T18:19:06.235Z,7.70
2018-03-22T18:21:34.780Z,8.00
2018-03-22T18:24:02.338Z,7.80
2018-03-22T18:26:29.885Z,7.93
2018-03-22T18:28:58.205Z,8.80
2018-03-22T18:31:27.683Z,10.73
2018-03-22T18:33:55.989Z,9.33
2018-03-22T18:36:23.652Z,8.60
2018-03-22T18:38:51.211Z,9.13
2018-03-22T18:41:18.786Z,13.90
2018-03-22T18:43:46.349Z,13.73
2018-03-22T18:46:13.856Z,8.07
2018-03-22T18:48:41.398Z,9.80
2018-03-22T18:51:08.937Z,12.43
2018-03-22T18:53:36.443Z,10.30
2018-03-22T18:56:03.974Z,8.97
2018-03-22T18:58:31.524Z,9.77
2018-03-22T19:00:59.178Z,9.30
2018-03-22T19:03:27.726Z,9.30
2018-03-22T19:05:55.247Z,8.70
2018-03-22T19:08:23.714Z,8.67
2018-03-22T19:10:52.869Z,9.50
2018-03-22T19:13:22.421Z,10.50
2018-03-22T19:15:50.760Z,10.67
2018-03-22T19:18:18.265Z,10.87
2018-03-22T19:20:48.463Z,11.10
2018-03-22T19:23:16.946Z,11.33
2018-03-22T19:25:44.574Z,11.90
2018-03-22T19:28:12.119Z,11.80
2018-03-22T19:30:42.433Z,11.77
2018-03-22T19:33:10.761Z,12.47
2018-03-22T19:35:38.284Z,12.13
2018-03-22T19:38:07.524Z,11.03
2018-03-22T19:40:35.194Z,11.60
2018-03-22T19:43:02.722Z,12.70
2018-03-22T19:45:30.282Z,12.53
2018-03-22T19:47:57.864Z,12.03
2018-03-22T19:50:27.346Z,12.00
2018-03-22T19:52:57.569Z,12.70
2018-03-22T19:55:25.854Z,10.40
2018-03-22T19:57:54.178Z,13.07
2018-03-22T20:00:23.641Z,13.83
2018-03-22T20:02:51.972Z,14.27
2018-03-22T20:05:20.715Z,12.53
2018-03-22T20:07:49.059Z,12.73
2018-03-22T20:10:16.718Z,13.10
2018-03-22T20:12:47.005Z,12.43
2018-03-22T20:15:15.867Z,12.07
2018-03-22T20:17:44.306Z,11.97
2018-03-22T20:20:15.876Z,12.67
2018-03-22T20:22:45.568Z,12.23
2018-03-22T20:25:13.082Z,12.47
2018-03-22T20:27:42.990Z,12.27
2018-03-22T20:30:10.550Z,13.73
2018-03-22T20:35:40.289Z,14.23
2018-03-22T20:38:07.949Z,15.20
2018-03-22T20:40:35.689Z,15.10
2018-03-22T20:43:04.953Z,15.43
2018-03-22T20:45:34.196Z,17.13
2018-03-22T20:48:01.725Z,15.43
2018-03-22T20:50:29.300Z,16.03
2018-03-22T20:52:57.759Z,16.23
2018-03-22T20:55:26.988Z,16.43
2018-03-22T20:57:54.567Z,16.57
2018-03-22T21:00:24.485Z,15.97
2018-03-22T21:02:52.921Z,16.33
2018-03-22T21:05:21.067Z,16.40
2018-03-22T21:07:48.600Z,18.13
2018-03-22T21:10:16.137Z,16.97
2018-03-22T21:12:46.344Z,17.73
2018-03-22T21:15:15.525Z,18.53
2018-03-22T21:17:43.975Z,17.37
2018-03-22T21:20:11.495Z,14.27
2018-03-22T21:22:41.784Z,12.07
2018-03-22T21:25:09.661Z,12.80
2018-03-22T21:27:38.051Z,12.27
2018-03-22T21:30:05.594Z,11.37
2018-03-22T21:32:33.140Z,11.47
2018-03-22T21:35:00.693Z,12.33
2018-03-22T21:37:28.993Z,11.97
2018-03-22T21:39:56.497Z,12.30
2018-03-22T21:42:24.146Z,11.60
2018-03-22T21:44:52.586Z,12.57
2018-03-22T21:47:32.623Z,12.23
2018-03-22T21:50:00.698Z,12.60
2018-03-22T21:52:40.782Z,12.57
2018-03-22T21:55:08.306Z,10.17
2018-03-22T21:57:35.818Z,12.57
2018-03-22T22:00:03.385Z,12.77
2018-03-22T22:02:30.943Z,11.50
2018-03-22T22:05:00.437Z,13.13
2018-03-22T22:07:28.052Z,11.80
2018-03-22T22:09:55.576Z,12.53
2018-03-22T22:12:23.136Z,16.62
2018-03-22T22:14:50.638Z,13.33
2018-03-22T22:17:18.136Z,12.40
2018-03-22T22:19:45.759Z,13.73
2018-03-22T22:22:15.189Z,13.83
2018-03-22T22:24:42.785Z,12.47
2018-03-22T22:27:11.032Z,12.87
2018-03-22T22:29:38.588Z,14.10
2018-03-22T22:32:06.116Z,13.53
2018-03-22T22:34:33.644Z,14.40
2018-03-22T22:37:02.892Z,14.07
2018-03-22T22:39:31.349Z,14.17
2018-03-22T22:41:59.709Z,14.40
2018-03-22T22:44:28.053Z,14.70
2018-03-22T22:46:56.490Z,15.97
2018-03-22T22:49:24.760Z,15.17
2018-03-22T22:51:52.294Z,15.23
2018-03-22T22:54:19.804Z,15.60
2018-03-22T22:56:48.131Z,14.63
2018-03-22T22:59:15.675Z,15.80
2018-03-22T23:01:43.201Z,15.03
2018-03-22T23:04:10.711Z,15.23
2018-03-22T23:06:38.264Z,15.77
2018-03-22T23:09:05.836Z,13.93
2018-03-22T23:11:34.076Z,16.33
2018-03-22T23:14:02.394Z,15.07
2018-03-22T23:16:29.921Z,14.70
2018-03-22T23:18:57.515Z,14.83
2018-03-22T23:21:25.021Z,14.10
2018-03-22T23:23:52.561Z,14.00
2018-03-22T23:26:20.138Z,14.20
2018-03-22T23:28:49.428Z,14.63
2018-03-22T23:31:16.972Z,14.97
2018-03-22T23:33:44.478Z,14.27
2018-03-22T23:36:12.034Z,14.10
2018-03-22T23:38:39.602Z,14.83
2018-03-22T23:41:07.940Z,14.40
2018-03-22T23:43:35.449Z,14.20
2018-03-22T23:46:03.969Z,14.87
2018-03-22T23:48:31.568Z,14.73
2018-03-22T23:51:00.039Z,13.37
2018-03-22T23:53:28.513Z,13.53
2018-03-22T23:55:56.794Z,12.87
2018-03-22T23:58:26.039Z,13.43
